createdAt,value
2022-10-15T00:03:09.317Z,48.46
2022-10-15T00:08:12.460Z,48.08
2022-10-15T00:13:14.125Z,48.03
2022-10-15T00:18:15.924Z,48.08
2022-10-15T00:23:17.719Z,48.07
2022-10-15T00:28:19.641Z,48.29
2022-10-15T00:33:22.801Z,48.16
2022-10-15T00:38:24.612Z,48.09
2022-10-15T00:43:39.425Z,48.19
2022-10-15T00:48:41.584Z,47.74
2022-10-15T00:53:44.403Z,47.75
2022-10-15T00:58:47.186Z,47.78
2022-10-15T01:03:49.345Z,48.18
2022-10-15T01:08:52.215Z,48.06
2022-10-15T01:14:07.854Z,47.85
2022-10-15T01:19:44.975Z,47.93
2022-10-15T01:25:03.257Z,47.91
2022-10-15T01:30:05.373Z,47.91
2022-10-15T01:35:23.137Z,47.79
2022-10-15T01:40:32.693Z,47.75
2022-10-15T01:45:36.658Z,47.67
2022-10-15T01:50:44.013Z,47.71
2022-10-15T01:55:47.839Z,47.80
2022-10-15T02:00:52.164Z,47.48
2022-10-15T02:06:04.155Z,47.69
2022-10-15T02:11:10.868Z,47.51
2022-10-15T02:16:40.283Z,47.78
2022-10-15T02:21:47.465Z,47.51
2022-10-15T02:26:52.616Z,47.42
2022-10-15T02:31:57.840Z,47.54
2022-10-15T02:37:04.134Z,47.74
2022-10-15T02:42:06.577Z,47.50
2022-10-15T02:47:08.477Z,47.55
2022-10-15T02:52:10.393Z,47.51
2022-10-15T02:57:12.114Z,47.67
2022-10-15T03:02:16.771Z,47.36
2022-10-15T03:07:21.304Z,47.38
2022-10-15T03:12:23.724Z,47.37
2022-10-15T03:17:25.800Z,47.51
2022-10-15T03:22:28.129Z,47.08
2022-10-15T03:27:29.921Z,47.51
2022-10-15T03:32:34.229Z,47.30
2022-10-15T03:37:38.189Z,47.31
2022-10-15T03:42:40.098Z,47.39
2022-10-15T03:47:41.976Z,47.57
2022-10-15T03:52:43.875Z,47.35
2022-10-15T03:57:45.723Z,47.06
2022-10-15T04:02:47.617Z,47.23
2022-10-15T04:07:49.451Z,47.33
2022-10-15T04:12:51.220Z,47.20
2022-10-15T04:17:56.387Z,47.28
2022-10-15T04:22:58.269Z,47.27
2022-10-15T04:28:00.306Z,47.33
2022-10-15T04:33:02.187Z,47.20
2022-10-15T04:38:04.088Z,47.08
2022-10-15T04:43:05.885Z,47.20
2022-10-15T04:48:07.633Z,47.24
2022-10-15T04:53:09.429Z,47.17
2022-10-15T04:58:11.146Z,47.23
2022-10-15T05:03:12.966Z,47.37
2022-10-15T05:08:14.843Z,47.29
2022-10-15T05:13:16.756Z,47.44
2022-10-15T05:18:18.473Z,47.14
2022-10-15T05:23:20.200Z,47.18
2022-10-15T05:28:22.049Z,47.23
2022-10-15T05:33:23.852Z,47.00
2022-10-15T05:38:25.763Z,47.46
2022-10-15T05:43:27.386Z,47.03
2022-10-15T05:48:29.144Z,47.35
2022-10-15T05:53:31.190Z,47.32
2022-10-15T05:58:37.178Z,47.03
2022-10-15T06:03:41.465Z,47.25
2022-10-15T06:08:43.521Z,47.77
2022-10-15T06:13:46.303Z,47.14
2022-10-15T06:18:48.233Z,47.61
2022-10-15T06:23:50.015Z,47.21
2022-10-15T06:28:51.904Z,47.26
2022-10-15T06:33:53.689Z,47.10
2022-10-15T06:38:55.665Z,47.10
2022-10-15T06:43:57.442Z,47.33
2022-10-15T06:48:59.231Z,49.11
2022-10-15T06:54:01.107Z,49.79
2022-10-15T06:59:02.989Z,49.06
2022-10-15T07:04:04.809Z,48.96
2022-10-15T07:09:06.945Z,48.92
2022-10-15T07:14:09.109Z,49.07
2022-10-15T07:19:10.727Z,49.06
2022-10-15T07:24:12.595Z,49.23
2022-10-15T07:29:14.362Z,49.36
2022-10-15T07:34:16.121Z,49.73
2022-10-15T07:39:19.873Z,49.52
2022-10-15T07:44:21.978Z,49.25
2022-10-15T07:49:23.982Z,49.30
2022-10-15T07:54:25.786Z,48.96
2022-10-15T07:59:27.638Z,49.24
2022-10-15T08:04:29.510Z,50.30
2022-10-15T08:09:31.401Z,49.83
2022-10-15T08:14:34.669Z,49.77
2022-10-15T08:19:36.371Z,49.38
2022-10-15T08:24:38.145Z,49.14
2022-10-15T08:29:39.916Z,49.38
2022-10-15T08:34:41.609Z,49.36
2022-10-15T08:39:43.319Z,49.47
2022-10-15T08:44:51.383Z,49.57
2022-10-15T08:49:56.803Z,49.64
2022-10-15T08:55:01.843Z,49.31
2022-10-15T09:00:30.061Z,49.15
2022-10-15T09:06:06.605Z,49.66
2022-10-15T09:11:32.775Z,49.58
2022-10-15T09:16:37.574Z,49.71
2022-10-15T09:21:39.629Z,49.67
2022-10-15T09:27:11.902Z,50.03
2022-10-15T09:32:23.208Z,49.44
2022-10-15T09:37:31.619Z,49.33
2022-10-15T09:42:38.500Z,49.68
2022-10-15T09:47:42.742Z,49.30
2022-10-15T09:53:28.247Z,49.43
2022-10-15T09:58:37.240Z,49.57
2022-10-15T10:03:39.033Z,49.60
2022-10-15T10:08:50.872Z,49.73
2022-10-15T10:13:59.058Z,50.06
2022-10-15T10:19:14.480Z,50.23
2022-10-15T10:24:20.944Z,50.36
2022-10-15T10:29:39.317Z,50.43
2022-10-15T10:34:46.462Z,50.84
2022-10-15T10:39:59.494Z,51.44
2022-10-15T10:45:18.866Z,51.63
2022-10-15T10:50:33.580Z,52.33
2022-10-15T10:55:39.903Z,52.22
2022-10-15T11:00:47.711Z,53.91
2022-10-15T11:05:56.346Z,55.21
2022-10-15T11:11:14.560Z,54.89
2022-10-15T11:16:58.755Z,55.02
2022-10-15T11:22:37.508Z,54.61
2022-10-15T11:28:17.357Z,54.85
2022-10-15T11:33:29.707Z,54.44
2022-10-15T11:38:46.005Z,54.89
2022-10-15T11:43:47.868Z,54.71
2022-10-15T11:49:08.643Z,54.50
2022-10-15T11:54:31.844Z,54.38
2022-10-15T11:59:57.301Z,54.41
2022-10-15T12:05:21.354Z,54.70
2022-10-15T12:10:35.040Z,57.01
2022-10-15T12:15:45.900Z,56.93
2022-10-15T12:20:47.898Z,55.34
2022-10-15T12:25:50.027Z,55.99
2022-10-15T12:31:09.724Z,58.11
2022-10-15T12:36:31.426Z,57.16
2022-10-15T12:41:51.727Z,57.51
2022-10-15T12:46:53.895Z,56.92
2022-10-15T12:52:00.257Z,56.60
2022-10-15T12:57:05.141Z,56.26
2022-10-15T13:02:35.780Z,56.83
2022-10-15T13:07:41.225Z,56.28
2022-10-15T13:12:43.166Z,55.39
2022-10-15T13:17:45.129Z,56.17
2022-10-15T13:22:46.916Z,55.94
2022-10-15T13:27:48.864Z,56.04
2022-10-15T13:32:53.119Z,55.81
2022-10-15T13:37:56.781Z,55.82
2022-10-15T13:43:09.327Z,55.39
2022-10-15T13:48:13.414Z,55.18
2022-10-15T13:53:25.649Z,55.02
2022-10-15T13:58:31.607Z,54.78
2022-10-15T14:03:36.242Z,54.38
2022-10-15T14:08:38.413Z,53.81
2022-10-15T14:13:51.934Z,53.48
2022-10-15T14:19:11.439Z,53.71
2022-10-15T14:24:13.498Z,53.16
2022-10-15T14:29:46.360Z,53.16
2022-10-15T14:34:49.420Z,52.79
2022-10-15T14:39:51.288Z,53.01
2022-10-15T14:44:53.336Z,52.80
2022-10-15T14:50:00.199Z,52.71
2022-10-15T14:55:02.074Z,52.64
2022-10-15T15:00:31.985Z,52.91
2022-10-15T15:05:52.963Z,52.56
2022-10-15T15:10:58.045Z,52.54
2022-10-15T15:15:59.902Z,52.20
2022-10-15T15:21:04.640Z,52.03
2022-10-15T15:26:06.622Z,51.43
2022-10-15T15:31:15.980Z,51.66
2022-10-15T15:36:20.766Z,53.30
2022-10-15T15:41:25.912Z,52.01
2022-10-15T15:46:27.765Z,52.56
2022-10-15T15:51:31.994Z,52.74
2022-10-15T15:56:35.222Z,52.57
2022-10-15T16:01:37.399Z,52.65
2022-10-15T16:06:39.753Z,52.19
2022-10-15T16:11:42.078Z,52.31
2022-10-15T16:16:44.261Z,52.41
2022-10-15T16:21:46.296Z,52.28
2022-10-15T16:26:48.085Z,51.74
2022-10-15T16:31:50.176Z,51.94
2022-10-15T16:36:52.124Z,52.09
2022-10-15T16:41:54.163Z,52.10
2022-10-15T16:46:56.252Z,51.80
2022-10-15T16:51:58.057Z,52.03
2022-10-15T16:56:59.908Z,51.86
2022-10-15T17:02:01.876Z,51.57
2022-10-15T17:07:03.912Z,52.65
2022-10-15T17:12:05.739Z,51.33
2022-10-15T17:17:08.181Z,51.63
2022-10-15T17:22:10.327Z,50.83
2022-10-15T17:27:12.222Z,51.63
2022-10-15T17:32:14.106Z,51.57
2022-10-15T17:37:16.301Z,51.70
2022-10-15T17:42:19.077Z,51.51
2022-10-15T17:47:20.986Z,51.82
2022-10-15T17:52:23.128Z,51.82
2022-10-15T17:57:25.624Z,52.59
2022-10-15T18:02:27.968Z,52.14
2022-10-15T18:07:29.826Z,52.07
2022-10-15T18:12:31.572Z,51.68
2022-10-15T18:17:33.547Z,51.02
2022-10-15T18:22:35.714Z,51.26
2022-10-15T18:27:37.872Z,51.21
2022-10-15T18:32:40.035Z,51.07
2022-10-15T18:37:42.133Z,51.32
2022-10-15T18:42:47.670Z,51.08
2022-10-15T18:47:49.866Z,51.13
2022-10-15T18:52:51.783Z,51.04
2022-10-15T18:57:53.742Z,50.63
2022-10-15T19:02:57.533Z,50.44
2022-10-15T19:07:59.325Z,50.43
2022-10-15T19:13:01.770Z,50.64
2022-10-15T19:18:06.013Z,50.80
2022-10-15T19:23:08.156Z,50.42
2022-10-15T19:28:10.506Z,50.45
2022-10-15T19:33:12.447Z,50.67
2022-10-15T19:38:14.306Z,50.74
2022-10-15T19:43:18.997Z,50.86
2022-10-15T19:48:23.150Z,50.75
2022-10-15T19:53:25.290Z,50.73
2022-10-15T19:58:27.265Z,50.87
2022-10-15T20:03:30.864Z,50.56
2022-10-15T20:08:32.985Z,50.55
2022-10-15T20:13:36.210Z,50.72
2022-10-15T20:18:38.070Z,50.64
2022-10-15T20:23:41.732Z,50.71
2022-10-15T20:28:45.248Z,50.49
2022-10-15T20:33:47.694Z,50.44
2022-10-15T20:38:49.791Z,50.47
2022-10-15T20:43:56.633Z,50.74
2022-10-15T20:49:07.602Z,50.85
2022-10-15T20:54:13.061Z,50.77
2022-10-15T20:59:15.213Z,51.05
2022-10-15T21:04:17.292Z,50.73
2022-10-15T21:09:19.099Z,51.00
2022-10-15T21:14:21.011Z,51.41
2022-10-15T21:19:22.686Z,50.87
2022-10-15T21:24:28.248Z,51.29
2022-10-15T21:29:30.181Z,51.00
2022-10-15T21:34:32.036Z,50.78
2022-10-15T21:39:34.423Z,51.02
2022-10-15T21:44:36.401Z,51.01
2022-10-15T21:49:38.265Z,51.13
2022-10-15T21:54:43.186Z,50.77
2022-10-15T21:59:45.013Z,50.51
2022-10-15T22:04:46.768Z,50.43
2022-10-15T22:09:48.463Z,50.30
2022-10-15T22:14:50.142Z,49.87
2022-10-15T22:19:51.849Z,50.55
2022-10-15T22:24:54.693Z,50.25
2022-10-15T22:29:56.419Z,50.21
2022-10-15T22:34:58.065Z,50.02
2022-10-15T22:39:59.779Z,49.98
2022-10-15T22:45:01.631Z,49.93
2022-10-15T22:50:03.458Z,50.13
2022-10-15T22:55:05.655Z,49.83
2022-10-15T23:00:08.308Z,49.80
2022-10-15T23:05:10.082Z,49.31
2022-10-15T23:10:11.931Z,49.91
2022-10-15T23:15:13.790Z,49.33
2022-10-15T23:20:15.861Z,49.24
2022-10-15T23:25:17.732Z,49.19
2022-10-15T23:30:24.336Z,49.50
2022-10-15T23:35:26.912Z,49.38
2022-10-15T23:40:30.509Z,49.28
2022-10-15T23:45:32.454Z,49.49
2022-10-15T23:50:35.567Z,49.29
2022-10-15T23:55:38.958Z,49.11
